createdAt,value
2022-10-17T00:00:01.783Z,9.64
2022-10-17T00:03:10.708Z,9.59
2022-10-17T00:06:17.946Z,9.54
2022-10-17T00:09:26.433Z,9.53
2022-10-17T00:12:32.537Z,9.48
2022-10-17T00:15:40.735Z,9.48
2022-10-17T00:18:48.474Z,9.47
2022-10-17T00:21:55.188Z,9.43
2022-10-17T00:25:02.425Z,9.43
2022-10-17T00:28:11.462Z,9.39
2022-10-17T00:31:19.704Z,9.36
2022-10-17T00:34:27.255Z,9.35
2022-10-17T00:37:36.883Z,9.32
2022-10-17T00:40:46.511Z,9.32
2022-10-17T00:43:55.711Z,9.28
2022-10-17T00:47:03.952Z,9.27
2022-10-17T00:50:15.255Z,9.22
2022-10-17T00:53:22.861Z,9.20
2022-10-17T00:56:29.434Z,9.16
2022-10-17T00:59:38.686Z,9.14
2022-10-17T01:02:45.680Z,9.13
2022-10-17T01:05:53.703Z,9.08
2022-10-17T01:09:01.287Z,9.06
2022-10-17T01:12:14.406Z,9.02
2022-10-17T01:15:20.874Z,9.02
2022-10-17T01:18:29.970Z,9.00
2022-10-17T01:21:41.398Z,9.01
2022-10-17T01:24:50.288Z,9.01
2022-10-17T01:28:06.858Z,9.03
2022-10-17T01:31:17.333Z,8.97
2022-10-17T01:34:25.348Z,8.95
2022-10-17T01:37:35.869Z,8.92
2022-10-17T01:40:43.787Z,8.92
2022-10-17T01:43:53.730Z,8.91
2022-10-17T01:47:12.848Z,8.85
2022-10-17T01:50:22.334Z,8.84
2022-10-17T01:53:37.081Z,8.80
2022-10-17T01:56:45.687Z,8.79
2022-10-17T01:59:55.017Z,8.76
2022-10-17T02:03:02.997Z,8.75
2022-10-17T02:06:09.743Z,8.73
2022-10-17T02:09:21.007Z,8.69
2022-10-17T02:12:47.131Z,8.67
2022-10-17T02:16:22.971Z,8.66
2022-10-17T02:19:43.996Z,8.66
2022-10-17T02:22:53.082Z,8.63
2022-10-17T02:26:05.194Z,8.58
2022-10-17T02:29:26.433Z,8.57
2022-10-17T02:32:39.221Z,8.53
2022-10-17T02:35:48.617Z,8.48
2022-10-17T02:38:57.196Z,8.49
2022-10-17T02:42:05.533Z,8.53
2022-10-17T02:45:15.524Z,8.52
2022-10-17T02:48:26.732Z,8.52
2022-10-17T02:51:42.781Z,8.65
2022-10-17T02:54:53.106Z,8.65
2022-10-17T02:58:01.428Z,8.63
2022-10-17T03:01:08.063Z,8.58
2022-10-17T03:04:15.968Z,8.51
2022-10-17T03:07:21.234Z,8.51
2022-10-17T03:10:27.391Z,8.44
2022-10-17T03:13:35.060Z,8.39
2022-10-17T03:16:42.636Z,8.36
2022-10-17T03:19:51.581Z,8.32
2022-10-17T03:23:03.234Z,8.32
2022-10-17T03:26:09.350Z,8.38
2022-10-17T03:29:19.524Z,8.40
2022-10-17T03:32:24.773Z,8.38
2022-10-17T03:35:30.887Z,8.35
2022-10-17T03:38:37.982Z,8.31
2022-10-17T03:41:46.254Z,8.33
2022-10-17T03:44:53.748Z,8.31
2022-10-17T03:48:00.245Z,8.29
2022-10-17T03:51:07.276Z,8.28
2022-10-17T03:54:15.238Z,8.25
2022-10-17T03:57:20.252Z,8.22
2022-10-17T04:00:26.488Z,8.24
2022-10-17T04:03:33.802Z,8.23
2022-10-17T04:06:42.111Z,8.26
2022-10-17T04:09:49.971Z,8.28
2022-10-17T04:12:57.008Z,8.27
2022-10-17T04:16:02.711Z,8.32
2022-10-17T04:19:13.915Z,8.53
2022-10-17T04:22:20.019Z,8.64
2022-10-17T04:25:26.859Z,8.61
2022-10-17T04:28:36.706Z,8.52
2022-10-17T04:31:41.825Z,8.39
2022-10-17T04:34:51.567Z,8.32
2022-10-17T04:37:57.384Z,8.22
2022-10-17T04:41:05.598Z,8.12
2022-10-17T04:44:11.370Z,8.07
2022-10-17T04:47:16.813Z,8.01
2022-10-17T04:50:19.953Z,8.00
2022-10-17T04:53:39.624Z,8.00
2022-10-17T04:56:44.816Z,7.95
2022-10-17T04:59:49.982Z,7.99
2022-10-17T05:02:56.532Z,7.96
2022-10-17T05:06:04.309Z,7.95
2022-10-17T05:09:09.624Z,7.94
2022-10-17T05:12:14.407Z,7.96
2022-10-17T05:15:18.582Z,7.98
2022-10-17T05:18:23.229Z,7.98
2022-10-17T05:21:30.744Z,8.00
2022-10-17T05:24:34.392Z,8.00
2022-10-17T05:27:38.352Z,8.02
2022-10-17T05:30:44.072Z,8.04
2022-10-17T05:33:47.239Z,8.10
2022-10-17T05:36:52.526Z,8.15
2022-10-17T05:39:57.481Z,8.16
2022-10-17T05:43:01.417Z,8.21
2022-10-17T05:46:05.774Z,8.25
2022-10-17T05:49:19.809Z,8.33
2022-10-17T05:52:36.809Z,8.39
2022-10-17T05:55:40.368Z,8.47
2022-10-17T05:58:55.169Z,8.52
2022-10-17T06:02:01.414Z,8.56
2022-10-17T06:05:06.119Z,8.68
2022-10-17T06:08:09.259Z,8.82
2022-10-17T06:11:13.714Z,8.86
2022-10-17T06:14:17.156Z,8.97
2022-10-17T06:17:21.070Z,9.01
2022-10-17T06:20:25.347Z,9.10
2022-10-17T06:23:28.972Z,9.21
2022-10-17T06:26:32.156Z,9.33
2022-10-17T06:29:35.508Z,9.42
2022-10-17T06:32:39.243Z,9.53
2022-10-17T06:35:43.938Z,9.73
2022-10-17T06:38:47.826Z,9.94
2022-10-17T06:41:52.603Z,9.93
2022-10-17T06:44:56.041Z,9.91
2022-10-17T06:47:59.507Z,9.93
2022-10-17T06:51:04.908Z,10.03
2022-10-17T06:54:10.621Z,10.07
2022-10-17T06:57:14.963Z,10.14
2022-10-17T07:00:20.304Z,10.30
2022-10-17T07:03:25.070Z,10.43
2022-10-17T07:06:28.057Z,10.46
2022-10-17T07:09:32.087Z,10.51
2022-10-17T07:12:36.743Z,10.56
2022-10-17T07:15:41.076Z,10.63
2022-10-17T07:18:49.893Z,10.76
2022-10-17T07:21:55.051Z,10.90
2022-10-17T07:24:58.662Z,11.04
2022-10-17T07:28:02.547Z,11.24
2022-10-17T07:31:08.381Z,11.52
2022-10-17T07:34:11.054Z,11.80
2022-10-17T07:37:14.760Z,12.40
2022-10-17T07:40:20.409Z,13.73
2022-10-17T07:43:23.883Z,15.72
2022-10-17T07:46:26.508Z,17.61
2022-10-17T07:49:29.746Z,19.41
2022-10-17T07:52:33.145Z,20.88
2022-10-17T07:55:40.419Z,20.78
2022-10-17T07:58:44.479Z,22.29
2022-10-17T08:01:48.943Z,22.92
2022-10-17T08:04:53.484Z,24.04
2022-10-17T08:07:56.686Z,24.74
2022-10-17T08:11:05.243Z,22.44
2022-10-17T08:14:09.033Z,24.22
2022-10-17T08:17:12.770Z,25.45
2022-10-17T08:20:17.520Z,26.31
2022-10-17T08:23:21.035Z,23.13
2022-10-17T08:26:24.323Z,19.73
2022-10-17T08:29:27.791Z,17.08
2022-10-17T08:32:30.981Z,17.23
2022-10-17T08:35:35.158Z,16.67
2022-10-17T08:38:43.027Z,16.03
2022-10-17T08:42:06.033Z,15.73
2022-10-17T08:45:12.817Z,15.72
2022-10-17T08:48:18.367Z,15.58
2022-10-17T08:51:24.709Z,15.39
2022-10-17T08:54:39.467Z,15.32
2022-10-17T08:57:42.473Z,15.19
2022-10-17T09:00:51.016Z,15.08
2022-10-17T09:04:12.848Z,15.07
2022-10-17T09:07:26.052Z,14.97
2022-10-17T09:10:29.235Z,14.91
2022-10-17T09:16:49.821Z,15.09
2022-10-17T09:20:10.365Z,15.17
2022-10-17T09:23:22.201Z,15.22
2022-10-17T09:26:26.466Z,15.33
2022-10-17T09:29:36.050Z,15.26
2022-10-17T09:32:43.634Z,15.39
2022-10-17T09:35:47.885Z,15.47
2022-10-17T09:38:55.957Z,15.68
2022-10-17T09:41:59.667Z,15.94
2022-10-17T09:45:15.978Z,15.86
2022-10-17T09:48:30.120Z,15.88
2022-10-17T09:51:33.560Z,16.03
2022-10-17T09:54:42.021Z,16.22
2022-10-17T09:57:54.180Z,16.23
2022-10-17T10:01:19.560Z,16.33
2022-10-17T10:04:30.344Z,16.40
2022-10-17T10:07:40.156Z,16.53
2022-10-17T10:10:44.189Z,16.72
2022-10-17T10:13:48.347Z,16.95
2022-10-17T10:16:54.542Z,16.92
2022-10-17T10:19:57.319Z,16.89
2022-10-17T10:23:06.527Z,17.12
2022-10-17T10:26:22.975Z,17.24
2022-10-17T10:29:32.341Z,17.28
2022-10-17T10:32:37.697Z,17.35
2022-10-17T10:35:42.306Z,17.43
2022-10-17T10:38:51.598Z,17.56
2022-10-17T10:41:55.830Z,17.73
2022-10-17T10:45:04.274Z,17.78
2022-10-17T10:48:24.780Z,17.96
2022-10-17T10:51:40.090Z,18.19
2022-10-17T10:54:55.403Z,18.42
2022-10-17T10:58:00.268Z,19.26
2022-10-17T11:01:07.333Z,22.58
2022-10-17T11:04:10.072Z,25.68
2022-10-17T11:07:16.291Z,28.84
2022-10-17T11:10:22.026Z,26.53
2022-10-17T11:13:30.341Z,26.65
2022-10-17T11:16:42.330Z,26.43
2022-10-17T11:20:05.250Z,27.05
2022-10-17T11:23:11.441Z,30.30
2022-10-17T11:26:26.159Z,29.05
2022-10-17T11:29:30.152Z,29.84
2022-10-17T11:32:49.676Z,28.89
2022-10-17T11:35:58.671Z,31.80
2022-10-17T11:39:05.121Z,32.19
2022-10-17T11:42:19.359Z,34.81
2022-10-17T11:45:26.734Z,31.85
2022-10-17T11:48:35.532Z,29.60
2022-10-17T11:52:05.172Z,29.42
2022-10-17T11:55:16.015Z,29.61
2022-10-17T11:58:19.585Z,33.15
2022-10-17T12:01:24.514Z,30.61
2022-10-17T12:04:49.682Z,32.62
2022-10-17T12:08:01.527Z,31.93
2022-10-17T12:11:10.899Z,31.35
2022-10-17T12:14:32.747Z,30.85
2022-10-17T12:17:39.751Z,29.15
2022-10-17T12:20:43.472Z,26.84
2022-10-17T12:23:53.388Z,25.89
2022-10-17T12:26:57.131Z,23.99
2022-10-17T12:30:13.782Z,22.64
2022-10-17T12:33:22.513Z,23.13
2022-10-17T12:36:28.920Z,22.64
2022-10-17T12:39:31.481Z,22.40
2022-10-17T12:42:47.011Z,22.14
2022-10-17T12:45:54.744Z,21.96
2022-10-17T12:49:03.934Z,21.92
2022-10-17T12:52:17.599Z,21.83
2022-10-17T12:55:25.242Z,21.74
2022-10-17T12:58:30.808Z,21.75
2022-10-17T13:01:38.556Z,21.63
2022-10-17T13:04:43.327Z,21.48
2022-10-17T13:07:49.421Z,21.62
2022-10-17T13:10:55.528Z,21.21
2022-10-17T13:14:02.905Z,21.17
2022-10-17T13:17:21.942Z,21.04
2022-10-17T13:20:31.271Z,21.06
2022-10-17T13:23:36.234Z,20.89
2022-10-17T13:26:45.484Z,20.81
2022-10-17T13:29:50.301Z,20.76
2022-10-17T13:32:55.885Z,20.56
2022-10-17T13:36:00.848Z,20.55
2022-10-17T13:39:13.100Z,20.59
2022-10-17T13:42:25.910Z,20.69
2022-10-17T13:45:31.205Z,20.72
2022-10-17T13:48:37.750Z,20.63
2022-10-17T13:51:44.966Z,20.62
2022-10-17T13:54:50.981Z,20.47
2022-10-17T13:57:56.293Z,20.47
2022-10-17T14:00:59.806Z,20.32
2022-10-17T14:04:10.222Z,20.01
2022-10-17T14:07:46.376Z,19.91
2022-10-17T14:10:58.130Z,20.00
2022-10-17T14:14:03.688Z,19.96
2022-10-17T14:17:15.695Z,19.89
2022-10-17T14:20:57.521Z,19.73
2022-10-17T14:23:45.541Z,19.71
2022-10-17T14:26:55.722Z,19.54
2022-10-17T14:30:04.620Z,19.38
2022-10-17T14:33:13.757Z,19.36
2022-10-17T14:36:18.589Z,19.24
2022-10-17T14:39:25.753Z,19.18
2022-10-17T14:42:30.600Z,19.16
2022-10-17T14:45:36.507Z,18.94
2022-10-17T14:48:43.081Z,18.82
2022-10-17T14:52:07.854Z,18.77
2022-10-17T14:55:26.853Z,18.70
2022-10-17T14:58:31.624Z,18.57
2022-10-17T15:01:36.091Z,18.41
2022-10-17T15:04:41.744Z,18.26
2022-10-17T15:07:46.168Z,18.37
2022-10-17T15:10:52.173Z,18.27
2022-10-17T15:13:58.644Z,18.11
2022-10-17T15:17:02.501Z,18.02
2022-10-17T15:20:13.897Z,18.01
2022-10-17T15:23:18.439Z,17.88
2022-10-17T15:26:25.867Z,17.77
2022-10-17T15:29:30.912Z,17.76
2022-10-17T15:32:37.839Z,17.75
2022-10-17T15:35:44.631Z,17.55
2022-10-17T15:38:53.128Z,17.41
2022-10-17T15:41:57.896Z,17.31
2022-10-17T15:45:03.432Z,17.18
2022-10-17T15:48:10.903Z,17.03
2022-10-17T15:51:15.043Z,16.81
2022-10-17T15:54:18.648Z,16.63
2022-10-17T15:57:28.780Z,16.46
2022-10-17T16:00:35.238Z,16.28
2022-10-17T16:03:43.554Z,16.12
2022-10-17T16:06:50.187Z,15.97
2022-10-17T16:09:58.193Z,15.86
2022-10-17T16:13:03.003Z,15.74
2022-10-17T16:16:15.002Z,15.61
2022-10-17T16:19:21.117Z,15.46
2022-10-17T16:22:33.724Z,15.36
2022-10-17T16:25:41.437Z,15.23
2022-10-17T16:28:49.225Z,15.14
2022-10-17T16:31:56.606Z,15.04
2022-10-17T16:35:03.151Z,14.96
2022-10-17T16:38:08.698Z,14.86
2022-10-17T16:41:26.805Z,14.80
2022-10-17T16:44:30.896Z,14.76
2022-10-17T16:47:39.332Z,14.68
2022-10-17T16:50:47.203Z,14.61
2022-10-17T16:53:55.262Z,14.52
2022-10-17T16:57:01.097Z,14.44
2022-10-17T17:00:08.689Z,14.34
2022-10-17T17:03:13.352Z,14.25
2022-10-17T17:06:22.331Z,14.17
2022-10-17T17:09:29.569Z,14.08
2022-10-17T17:12:34.460Z,13.99
2022-10-17T17:15:39.706Z,13.90
2022-10-17T17:18:50.903Z,13.81
2022-10-17T17:21:58.957Z,13.73
2022-10-17T17:25:05.868Z,13.62
2022-10-17T17:28:12.570Z,13.56
2022-10-17T17:31:20.879Z,13.50
2022-10-17T17:34:28.731Z,13.42
2022-10-17T17:37:34.687Z,13.35
2022-10-17T17:40:50.826Z,13.32
2022-10-17T17:43:58.737Z,13.25
2022-10-17T17:47:07.008Z,13.18
2022-10-17T17:50:15.945Z,13.11
2022-10-17T17:53:22.118Z,13.04
2022-10-17T17:56:30.810Z,12.98
2022-10-17T17:59:39.778Z,12.92
2022-10-17T18:02:48.873Z,12.86
2022-10-17T18:05:56.261Z,12.80
2022-10-17T18:09:03.564Z,12.74
2022-10-17T18:12:10.892Z,12.70
2022-10-17T18:15:17.369Z,12.65
2022-10-17T18:18:25.308Z,12.64
2022-10-17T18:21:31.893Z,12.60
2022-10-17T18:24:37.688Z,12.56
2022-10-17T18:27:46.988Z,12.67
2022-10-17T18:30:51.529Z,12.74
2022-10-17T18:33:58.709Z,12.69
2022-10-17T18:37:07.204Z,12.61
2022-10-17T18:40:14.611Z,12.51
2022-10-17T18:43:20.163Z,12.47
2022-10-17T18:46:28.365Z,12.37
2022-10-17T18:49:33.498Z,12.34
2022-10-17T18:52:37.751Z,12.35
2022-10-17T18:55:41.876Z,12.33
2022-10-17T18:58:46.338Z,12.29
2022-10-17T19:01:50.223Z,12.27
2022-10-17T19:04:53.150Z,12.29
2022-10-17T19:07:58.477Z,12.21
2022-10-17T19:11:08.409Z,12.16
2022-10-17T19:14:15.720Z,12.12
2022-10-17T19:17:20.156Z,12.04
2022-10-17T19:20:26.447Z,11.99
2022-10-17T19:23:32.727Z,11.94
2022-10-17T19:26:40.555Z,11.93
2022-10-17T19:29:46.048Z,11.90
2022-10-17T19:32:53.490Z,11.81
2022-10-17T19:36:03.597Z,11.74
2022-10-17T19:39:15.365Z,11.66
2022-10-17T19:42:20.514Z,11.64
2022-10-17T19:45:27.478Z,11.64
2022-10-17T19:48:32.117Z,11.55
2022-10-17T19:51:35.432Z,11.50
2022-10-17T19:54:40.729Z,11.46
2022-10-17T19:57:45.494Z,11.42
2022-10-17T20:00:50.611Z,11.37
2022-10-17T20:03:56.526Z,11.32
2022-10-17T20:07:00.796Z,11.25
2022-10-17T20:10:07.929Z,11.25
2022-10-17T20:13:13.760Z,11.20
2022-10-17T20:16:24.408Z,11.16
2022-10-17T20:19:29.693Z,11.13
2022-10-17T20:22:38.975Z,11.11
2022-10-17T20:25:44.593Z,11.08
2022-10-17T20:28:55.100Z,11.04
2022-10-17T20:32:01.507Z,11.01
2022-10-17T20:35:09.941Z,10.97
2022-10-17T20:38:17.003Z,11.09
2022-10-17T20:41:22.053Z,11.12
2022-10-17T20:44:26.728Z,11.19
2022-10-17T20:47:46.096Z,11.15
2022-10-17T20:50:52.897Z,11.10
2022-10-17T20:53:59.971Z,11.03
2022-10-17T20:57:06.120Z,10.96
2022-10-17T21:00:10.736Z,10.88
2022-10-17T21:03:17.137Z,10.82
2022-10-17T21:06:24.002Z,10.79
2022-10-17T21:09:28.857Z,10.75
2022-10-17T21:12:49.894Z,10.68
2022-10-17T21:16:04.889Z,10.67
2022-10-17T21:19:13.750Z,10.63
2022-10-17T21:22:20.057Z,10.59
2022-10-17T21:25:29.541Z,10.56
2022-10-17T21:28:38.699Z,10.51
2022-10-17T21:31:48.839Z,10.48
2022-10-17T21:34:55.912Z,10.44
2022-10-17T21:38:02.216Z,10.42
2022-10-17T21:41:10.068Z,10.38
2022-10-17T21:44:20.231Z,10.33
2022-10-17T21:47:27.701Z,10.27
2022-10-17T21:50:34.643Z,10.25
2022-10-17T21:53:43.829Z,10.23
2022-10-17T21:56:52.356Z,10.22
2022-10-17T21:59:58.178Z,10.20
2022-10-17T22:03:05.248Z,10.18
2022-10-17T22:09:39.276Z,10.08
2022-10-17T22:12:47.178Z,10.08
2022-10-17T22:15:51.880Z,10.03
2022-10-17T22:19:03.159Z,9.99
2022-10-17T22:22:11.581Z,9.90
2022-10-17T22:25:19.281Z,9.92
2022-10-17T22:28:26.007Z,9.89
2022-10-17T22:31:30.620Z,9.87
2022-10-17T22:34:37.972Z,9.82
2022-10-17T22:37:46.392Z,9.76
2022-10-17T22:40:51.734Z,9.71
2022-10-17T22:43:57.727Z,9.67
2022-10-17T22:47:03.072Z,9.65
2022-10-17T22:50:08.293Z,9.65
2022-10-17T22:53:24.543Z,9.65
2022-10-17T22:56:30.944Z,9.66
2022-10-17T22:59:36.901Z,9.63
2022-10-17T23:02:42.795Z,9.58
2022-10-17T23:05:48.771Z,9.57
2022-10-17T23:08:54.241Z,9.58
2022-10-17T23:11:59.645Z,9.55
2022-10-17T23:15:05.996Z,9.51
2022-10-17T23:18:11.220Z,9.48
2022-10-17T23:21:19.298Z,9.43
2022-10-17T23:24:25.744Z,9.40
2022-10-17T23:27:32.545Z,9.37
2022-10-17T23:30:39.846Z,9.36
2022-10-17T23:33:50.506Z,9.35
2022-10-17T23:36:57.860Z,9.31
2022-10-17T23:40:03.967Z,9.25
2022-10-17T23:43:12.559Z,9.21
2022-10-17T23:46:19.307Z,9.16
2022-10-17T23:49:24.922Z,9.12
2022-10-17T23:52:29.636Z,9.09
2022-10-17T23:55:37.464Z,9.07
2022-10-17T23:58:44.540Z,9.04
